Rysy — C6ZA3 — position and weather

sailwx.info

Track history (hours):
 
Tides and Currents Weather Stations Pressure Air Temp Water Temp Dewpoint Dewpoint Depression Visibility Wind Speed Wind Dir Waves Ship Positions

Rysy

Last reported at 2016-May-28 02:33 UTC. Time now 2016-May-28 22:06 UTC.
Position N 39°11' W 009°51'.

Length 229 m; draft 13.8 m.

Type: Cargo ship. MMSI: 311051200.

Date/timePositionNaut miles runAvg speedWind from/ knotsBaromVisibWave heightAir tempDewpointWater temp
2016-May-28 02:33N 39°11' W 009°51'1212.1
2016-May-28 01:33N 38°59' W 009°52'1211.7
2016-May-28 00:32N 38°47' W 009°52'1111.3
2016-May-27 23:33N 38°36' W 009°50'1211.5
2016-May-27 22:32N 38°25' W 009°46'1211.3
2016-May-27 21:31N 38°14' W 009°43'1111.4
2016-May-27 20:33N 38°03' W 009°40'1111.2
2016-May-27 19:33N 37°52' W 009°36'1211.4
2016-May-27 18:32N 37°41' W 009°33'21710.3
2016-May-26 21:20N 35°58' W 005°33'6 7.9
2016-May-26 20:33N 35°60' W 005°26'8 8.5
2016-May-26 19:33N 36°02' W 005°16'22611.1
2016-May-25 23:10N 36°39' W 000°39'1111.4
2016-May-25 22:11N 36°41' W 000°25'2012.0
2016-May-25 20:31N 36°45' W 000°01'3612.2
2016-May-25 17:32N 36°51' E 000°44'2512.0
2016-May-25 15:26N 36°55' E 001°15'1112.0
2016-May-25 14:33N 36°57' E 001°28'1211.7
2016-May-25 13:30N 36°59' E 001°43'8111.5
2016-May-25 06:28N 37°12' E 003°23'1110.9
2016-May-25 05:29N 37°14' E 003°37'2311.3
2016-May-25 03:28N 37°16' E 004°05'1312.0
2016-May-25 02:24N 37°17' E 004°21'3712.1
2016-May-24 23:22N 37°22' E 005°07'2111.8
2016-May-24 21:33N 37°24' E 005°34'1212.0
2016-May-24 20:33N 37°25' E 005°49'1312.4
2016-May-24 19:32N 37°27' E 006°05'1212.0
2016-May-24 18:33N 37°28' E 006°20'22711.4
2016-May-23 22:31N 37°28' E 011°06'1210.5
2016-May-23 21:23N 37°23' E 011°20'3511.7
2016-May-23 18:24N 37°07' E 011°59'3411.2
2016-May-23 15:24N 36°51' E 012°36'910.9
2016-May-23 14:33N 36°47' E 012°46'1010.4
2016-May-23 13:33N 36°42' E 012°58'1110.8
2016-May-23 12:33N 36°37' E 013°10'1711.5
2016-May-23 11:06N 36°30' E 013°29'711.9
2016-May-23 10:32N 36°27' E 013°36'1211.9
2016-May-23 09:33N 36°22' E 013°49'1212.0
2016-May-23 08:33N 36°16' E 014°02'1212.1
2016-May-23 07:33N 36°11' E 014°15'1211.9
2016-May-23 06:33N 36°05' E 014°29'1211.8
2016-May-23 05:33N 35°59' E 014°41'7 7.1
2016-May-23 04:31N 35°53' E 014°47'0 0.0
2016-May-23 03:31N 35°53' E 014°47'0 0.1
2016-May-23 02:31N 35°53' E 014°47'0 0.0
2016-May-23 01:31N 35°53' E 014°47'0 0.1
2016-May-23 00:31N 35°53' E 014°47'0 0.1
2016-May-22 23:31N 35°54' E 014°47'0 0.1
2016-May-22 22:31N 35°54' E 014°47'0 0.1
2016-May-22 21:31N 35°54' E 014°47'0 0.0
2016-May-22 20:31N 35°54' E 014°47'0 0.2
2016-May-22 19:31N 35°53' E 014°47'1 1.3
2016-May-22 18:33N 35°53' E 014°49'4 4.1
2016-May-22 17:33N 35°54' E 014°54'0 0.0
2016-May-22 16:33N 35°54' E 014°54'0 0.1
2016-May-22 15:33N 35°54' E 014°54'0 0.2
2016-May-22 14:33N 35°55' E 014°54'7 6.8
2016-May-22 13:33N 36°01' E 014°57'1010.0
2016-May-22 12:33N 36°01' E 015°10'1212.0
2016-May-22 11:33N 36°02' E 015°25'1211.9
2016-May-22 10:33N 36°02' E 015°39'40010.3
2016-May-20 19:33N 37°12' E 023°50'1111.5
2016-May-20 18:33N 37°21' E 023°58'1211.6
2016-May-20 17:33N 37°31' E 024°06'1211.7
2016-May-20 16:33N 37°41' E 024°13'1212.2
2016-May-20 15:34N 37°49' E 024°25'5311.9
2016-May-20 11:09N 38°34' E 024°59'23310.3
2016-May-19 12:30N 40°58' E 028°57'  
Track history (hours):
 
Tides and Currents Weather Stations Pressure Air Temp Water Temp Dewpoint Dewpoint Depression Visibility Wind Speed Wind Dir Waves Ship Positions

Rysy

Last reported at 2016-May-28 02:33 UTC. Time now 2016-May-28 22:06 UTC.
Position N 39°11' W 009°51'.

Length 229 m; draft 13.8 m.

Type: Cargo ship. MMSI: 311051200.

Date/timePositionNaut miles runAvg speedWind from/ knotsBaromVisibWave heightAir tempDewpointWater temp
2016-May-28 02:33N 39°11' W 009°51'1212.1
2016-May-28 01:33N 38°59' W 009°52'1211.7
2016-May-28 00:32N 38°47' W 009°52'1111.3
2016-May-27 23:33N 38°36' W 009°50'1211.5
2016-May-27 22:32N 38°25' W 009°46'1211.3
2016-May-27 21:31N 38°14' W 009°43'1111.4
2016-May-27 20:33N 38°03' W 009°40'1111.2
2016-May-27 19:33N 37°52' W 009°36'1211.4
2016-May-27 18:32N 37°41' W 009°33'21710.3
2016-May-26 21:20N 35°58' W 005°33'6 7.9
2016-May-26 20:33N 35°60' W 005°26'8 8.5
2016-May-26 19:33N 36°02' W 005°16'22611.1
2016-May-25 23:10N 36°39' W 000°39'1111.4
2016-May-25 22:11N 36°41' W 000°25'2012.0
2016-May-25 20:31N 36°45' W 000°01'3612.2
2016-May-25 17:32N 36°51' E 000°44'2512.0
2016-May-25 15:26N 36°55' E 001°15'1112.0
2016-May-25 14:33N 36°57' E 001°28'1211.7
2016-May-25 13:30N 36°59' E 001°43'8111.5
2016-May-25 06:28N 37°12' E 003°23'1110.9
2016-May-25 05:29N 37°14' E 003°37'2311.3
2016-May-25 03:28N 37°16' E 004°05'1312.0
2016-May-25 02:24N 37°17' E 004°21'3712.1
2016-May-24 23:22N 37°22' E 005°07'2111.8
2016-May-24 21:33N 37°24' E 005°34'1212.0
2016-May-24 20:33N 37°25' E 005°49'1312.4
2016-May-24 19:32N 37°27' E 006°05'1212.0
2016-May-24 18:33N 37°28' E 006°20'22711.4
2016-May-23 22:31N 37°28' E 011°06'1210.5
2016-May-23 21:23N 37°23' E 011°20'3511.7
2016-May-23 18:24N 37°07' E 011°59'3411.2
2016-May-23 15:24N 36°51' E 012°36'910.9
2016-May-23 14:33N 36°47' E 012°46'1010.4
2016-May-23 13:33N 36°42' E 012°58'1110.8
2016-May-23 12:33N 36°37' E 013°10'1711.5
2016-May-23 11:06N 36°30' E 013°29'711.9
2016-May-23 10:32N 36°27' E 013°36'1211.9
2016-May-23 09:33N 36°22' E 013°49'1212.0
2016-May-23 08:33N 36°16' E 014°02'1212.1
2016-May-23 07:33N 36°11' E 014°15'1211.9
2016-May-23 06:33N 36°05' E 014°29'1211.8
2016-May-23 05:33N 35°59' E 014°41'7 7.1
2016-May-23 04:31N 35°53' E 014°47'0 0.0
2016-May-23 03:31N 35°53' E 014°47'0 0.1
2016-May-23 02:31N 35°53' E 014°47'0 0.0
2016-May-23 01:31N 35°53' E 014°47'0 0.1
2016-May-23 00:31N 35°53' E 014°47'0 0.1
2016-May-22 23:31N 35°54' E 014°47'0 0.1
2016-May-22 22:31N 35°54' E 014°47'0 0.1
2016-May-22 21:31N 35°54' E 014°47'0 0.0
2016-May-22 20:31N 35°54' E 014°47'0 0.2
2016-May-22 19:31N 35°53' E 014°47'1 1.3
2016-May-22 18:33N 35°53' E 014°49'4 4.1
2016-May-22 17:33N 35°54' E 014°54'0 0.0
2016-May-22 16:33N 35°54' E 014°54'0 0.1
2016-May-22 15:33N 35°54' E 014°54'0 0.2
2016-May-22 14:33N 35°55' E 014°54'7 6.8
2016-May-22 13:33N 36°01' E 014°57'1010.0
2016-May-22 12:33N 36°01' E 015°10'1212.0
2016-May-22 11:33N 36°02' E 015°25'1211.9
2016-May-22 10:33N 36°02' E 015°39'40010.3
2016-May-20 19:33N 37°12' E 023°50'1111.5
2016-May-20 18:33N 37°21' E 023°58'1211.6
2016-May-20 17:33N 37°31' E 024°06'1211.7
2016-May-20 16:33N 37°41' E 024°13'1212.2
2016-May-20 15:34N 37°49' E 024°25'5311.9
2016-May-20 11:09N 38°34' E 024°59'23310.3
2016-May-19 12:30N 40°58' E 028°57'  

Dump ship's entire track history